sensor_id;sensor_type;location;lat;lon;timestamp;temperature;humidity
2435;DHT22;1228;51.022;6.764;2022-08-30T00:01:06;19.20;99.90
2435;DHT22;1228;51.022;6.764;2022-08-30T00:03:36;19.20;99.90
2435;DHT22;1228;51.022;6.764;2022-08-30T00:06:03;19.30;99.90
2435;DHT22;1228;51.022;6.764;2022-08-30T00:08:31;19.30;99.90
2435;DHT22;1228;51.022;6.764;2022-08-30T00:10:57;19.20;99.90
2435;DHT22;1228;51.022;6.764;2022-08-30T00:13:23;19.20;99.90
2435;DHT22;1228;51.022;6.764;2022-08-30T00:15:49;19.20;99.90
2435;DHT22;1228;51.022;6.764;2022-08-30T00:18:15;19.20;99.90
2435;DHT22;1228;51.022;6.764;2022-08-30T00:20:43;19.20;99.90
2435;DHT22;1228;51.022;6.764;2022-08-30T00:23:10;19.20;99.90
2435;DHT22;1228;51.022;6.764;2022-08-30T00:25:36;19.10;99.90
2435;DHT22;1228;51.022;6.764;2022-08-30T00:28:02;19.00;99.90
2435;DHT22;1228;51.022;6.764;2022-08-30T00:30:28;18.90;99.90
2435;DHT22;1228;51.022;6.764;2022-08-30T00:32:54;18.90;99.90
2435;DHT22;1228;51.022;6.764;2022-08-30T00:35:21;18.80;99.90
2435;DHT22;1228;51.022;6.764;2022-08-30T00:37:47;18.70;99.90
2435;DHT22;1228;51.022;6.764;2022-08-30T00:40:14;18.60;99.90
2435;DHT22;1228;51.022;6.764;2022-08-30T00:42:41;18.50;99.90
2435;DHT22;1228;51.022;6.764;2022-08-30T00:45:29;18.40;99.90
2435;DHT22;1228;51.022;6.764;2022-08-30T00:47:56;18.30;99.90
2435;DHT22;1228;51.022;6.764;2022-08-30T00:50:25;18.20;99.90
2435;DHT22;1228;51.022;6.764;2022-08-30T00:52:54;18.10;99.90
2435;DHT22;1228;51.022;6.764;2022-08-30T00:55:21;18.10;99.90
2435;DHT22;1228;51.022;6.764;2022-08-30T00:57:50;18.10;99.90
2435;DHT22;1228;51.022;6.764;2022-08-30T01:00:17;18.10;99.90
2435;DHT22;1228;51.022;6.764;2022-08-30T01:02:42;18.10;99.90
2435;DHT22;1228;51.022;6.764;2022-08-30T01:05:10;18.10;99.90
2435;DHT22;1228;51.022;6.764;2022-08-30T01:07:39;18.10;99.90
2435;DHT22;1228;51.022;6.764;2022-08-30T01:10:06;18.10;99.90
2435;DHT22;1228;51.022;6.764;2022-08-30T01:12:35;18.10;99.90
2435;DHT22;1228;51.022;6.764;2022-08-30T01:15:03;18.10;99.90
2435;DHT22;1228;51.022;6.764;2022-08-30T01:17:29;18.10;99.90
2435;DHT22;1228;51.022;6.764;2022-08-30T01:19:59;18.10;99.90
2435;DHT22;1228;51.022;6.764;2022-08-30T01:25:15;18.00;99.90
2435;DHT22;1228;51.022;6.764;2022-08-30T01:27:46;17.90;99.90
2435;DHT22;1228;51.022;6.764;2022-08-30T01:30:14;17.90;99.90
2435;DHT22;1228;51.022;6.764;2022-08-30T01:32:42;17.80;99.90
2435;DHT22;1228;51.022;6.764;2022-08-30T01:35:11;17.90;99.90
2435;DHT22;1228;51.022;6.764;2022-08-30T01:37:37;17.90;99.90
2435;DHT22;1228;51.022;6.764;2022-08-30T01:40:04;17.90;99.90
2435;DHT22;1228;51.022;6.764;2022-08-30T01:42:31;17.90;99.90
2435;DHT22;1228;51.022;6.764;2022-08-30T01:44:56;17.90;99.90
2435;DHT22;1228;51.022;6.764;2022-08-30T01:47:22;18.00;99.90
2435;DHT22;1228;51.022;6.764;2022-08-30T01:49:48;18.00;99.90
2435;DHT22;1228;51.022;6.764;2022-08-30T01:52:16;18.10;99.90
2435;DHT22;1228;51.022;6.764;2022-08-30T01:54:43;18.10;99.90
2435;DHT22;1228;51.022;6.764;2022-08-30T01:57:12;18.10;99.90
2435;DHT22;1228;51.022;6.764;2022-08-30T01:59:39;18.10;99.90
2435;DHT22;1228;51.022;6.764;2022-08-30T02:02:07;18.10;99.90
2435;DHT22;1228;51.022;6.764;2022-08-30T02:04:33;18.00;99.90
2435;DHT22;1228;51.022;6.764;2022-08-30T02:07:01;18.00;99.90
2435;DHT22;1228;51.022;6.764;2022-08-30T02:09:27;18.00;99.90
2435;DHT22;1228;51.022;6.764;2022-08-30T02:11:52;17.90;99.90
2435;DHT22;1228;51.022;6.764;2022-08-30T02:14:18;17.90;99.90
2435;DHT22;1228;51.022;6.764;2022-08-30T02:16:44;17.80;99.90
2435;DHT22;1228;51.022;6.764;2022-08-30T02:19:10;17.70;99.90
2435;DHT22;1228;51.022;6.764;2022-08-30T02:21:36;17.60;99.90
2435;DHT22;1228;51.022;6.764;2022-08-30T02:24:02;17.50;99.90
2435;DHT22;1228;51.022;6.764;2022-08-30T02:26:28;17.50;99.90
2435;DHT22;1228;51.022;6.764;2022-08-30T02:28:53;17.50;99.90
2435;DHT22;1228;51.022;6.764;2022-08-30T02:31:21;17.50;99.90
2435;DHT22;1228;51.022;6.764;2022-08-30T02:33:49;17.60;99.90
2435;DHT22;1228;51.022;6.764;2022-08-30T02:36:15;17.70;99.90
2435;DHT22;1228;51.022;6.764;2022-08-30T02:38:40;17.70;99.90
2435;DHT22;1228;51.022;6.764;2022-08-30T02:41:06;17.70;99.90
2435;DHT22;1228;51.022;6.764;2022-08-30T02:43:32;17.70;99.90
2435;DHT22;1228;51.022;6.764;2022-08-30T02:45:57;17.60;99.90
2435;DHT22;1228;51.022;6.764;2022-08-30T02:48:23;17.60;99.90
2435;DHT22;1228;51.022;6.764;2022-08-30T02:50:50;17.60;99.90
2435;DHT22;1228;51.022;6.764;2022-08-30T02:53:17;17.50;99.90
2435;DHT22;1228;51.022;6.764;2022-08-30T02:55:44;17.50;99.90
2435;DHT22;1228;51.022;6.764;2022-08-30T02:58:10;17.40;99.90
2435;DHT22;1228;51.022;6.764;2022-08-30T03:00:36;17.40;99.90
2435;DHT22;1228;51.022;6.764;2022-08-30T03:03:01;17.40;99.90
2435;DHT22;1228;51.022;6.764;2022-08-30T03:05:31;17.30;99.90
2435;DHT22;1228;51.022;6.764;2022-08-30T03:07:58;17.20;99.90
2435;DHT22;1228;51.022;6.764;2022-08-30T03:10:24;17.30;99.90
2435;DHT22;1228;51.022;6.764;2022-08-30T03:12:51;17.30;99.90
2435;DHT22;1228;51.022;6.764;2022-08-30T03:15:16;17.30;99.90
2435;DHT22;1228;51.022;6.764;2022-08-30T03:17:42;17.40;99.90
2435;DHT22;1228;51.022;6.764;2022-08-30T03:20:08;17.30;99.90
2435;DHT22;1228;51.022;6.764;2022-08-30T03:22:34;17.40;99.90
2435;DHT22;1228;51.022;6.764;2022-08-30T03:25:00;17.40;99.90
2435;DHT22;1228;51.022;6.764;2022-08-30T03:27:27;17.50;99.90
2435;DHT22;1228;51.022;6.764;2022-08-30T03:29:53;17.60;99.90
2435;DHT22;1228;51.022;6.764;2022-08-30T03:32:19;17.50;99.90
2435;DHT22;1228;51.022;6.764;2022-08-30T03:34:45;17.50;99.90
2435;DHT22;1228;51.022;6.764;2022-08-30T03:37:11;17.60;99.90
2435;DHT22;1228;51.022;6.764;2022-08-30T03:39:36;17.50;99.90
2435;DHT22;1228;51.022;6.764;2022-08-30T03:42:02;17.50;99.90
2435;DHT22;1228;51.022;6.764;2022-08-30T03:44:28;17.50;99.90
2435;DHT22;1228;51.022;6.764;2022-08-30T03:46:53;17.30;99.90
2435;DHT22;1228;51.022;6.764;2022-08-30T03:49:19;17.20;99.90
2435;DHT22;1228;51.022;6.764;2022-08-30T03:51:45;17.10;99.90
2435;DHT22;1228;51.022;6.764;2022-08-30T03:54:12;17.10;99.90
2435;DHT22;1228;51.022;6.764;2022-08-30T03:56:37;17.00;99.90
2435;DHT22;1228;51.022;6.764;2022-08-30T03:59:04;17.00;99.90
2435;DHT22;1228;51.022;6.764;2022-08-30T04:01:29;17.00;99.90
2435;DHT22;1228;51.022;6.764;2022-08-30T04:03:55;16.90;99.90
2435;DHT22;1228;51.022;6.764;2022-08-30T04:06:21;16.90;99.90
2435;DHT22;1228;51.022;6.764;2022-08-30T04:08:47;16.80;99.90
2435;DHT22;1228;51.022;6.764;2022-08-30T04:11:12;16.70;99.90
2435;DHT22;1228;51.022;6.764;2022-08-30T04:13:40;16.60;99.90
2435;DHT22;1228;51.022;6.764;2022-08-30T04:16:05;16.60;99.90
2435;DHT22;1228;51.022;6.764;2022-08-30T04:18:31;16.60;99.90
2435;DHT22;1228;51.022;6.764;2022-08-30T04:20:56;16.50;99.90
2435;DHT22;1228;51.022;6.764;2022-08-30T04:23:22;16.50;99.90
2435;DHT22;1228;51.022;6.764;2022-08-30T04:25:48;16.50;99.90
2435;DHT22;1228;51.022;6.764;2022-08-30T04:28:14;16.50;99.90
2435;DHT22;1228;51.022;6.764;2022-08-30T04:30:41;16.40;99.90
2435;DHT22;1228;51.022;6.764;2022-08-30T04:33:07;16.50;99.90
2435;DHT22;1228;51.022;6.764;2022-08-30T04:35:33;16.50;99.90
2435;DHT22;1228;51.022;6.764;2022-08-30T04:37:58;16.50;99.90
2435;DHT22;1228;51.022;6.764;2022-08-30T04:40:24;16.60;99.90
2435;DHT22;1228;51.022;6.764;2022-08-30T04:42:50;16.60;99.90
2435;DHT22;1228;51.022;6.764;2022-08-30T04:45:19;16.60;99.90
2435;DHT22;1228;51.022;6.764;2022-08-30T04:47:46;16.70;99.90
2435;DHT22;1228;51.022;6.764;2022-08-30T04:50:14;16.70;99.90
2435;DHT22;1228;51.022;6.764;2022-08-30T04:52:40;16.80;99.90
2435;DHT22;1228;51.022;6.764;2022-08-30T04:55:06;16.90;99.90
2435;DHT22;1228;51.022;6.764;2022-08-30T04:57:33;16.90;99.90
2435;DHT22;1228;51.022;6.764;2022-08-30T04:59:59;16.90;99.90
2435;DHT22;1228;51.022;6.764;2022-08-30T05:02:25;16.90;99.90
2435;DHT22;1228;51.022;6.764;2022-08-30T05:04:50;16.90;99.90
2435;DHT22;1228;51.022;6.764;2022-08-30T05:07:35;16.90;99.90
2435;DHT22;1228;51.022;6.764;2022-08-30T05:10:00;16.90;99.90
2435;DHT22;1228;51.022;6.764;2022-08-30T05:12:26;16.90;99.90
2435;DHT22;1228;51.022;6.764;2022-08-30T05:14:52;16.90;99.90
2435;DHT22;1228;51.022;6.764;2022-08-30T05:17:18;17.00;99.90
2435;DHT22;1228;51.022;6.764;2022-08-30T05:19:43;17.10;99.90
2435;DHT22;1228;51.022;6.764;2022-08-30T05:22:09;17.10;99.90
2435;DHT22;1228;51.022;6.764;2022-08-30T05:24:35;17.20;99.90
2435;DHT22;1228;51.022;6.764;2022-08-30T05:27:01;17.20;99.90
2435;DHT22;1228;51.022;6.764;2022-08-30T05:29:27;17.30;99.90
2435;DHT22;1228;51.022;6.764;2022-08-30T05:31:52;17.30;99.90
2435;DHT22;1228;51.022;6.764;2022-08-30T05:34:18;17.30;99.90
2435;DHT22;1228;51.022;6.764;2022-08-30T05:36:45;17.30;99.90
2435;DHT22;1228;51.022;6.764;2022-08-30T05:39:11;17.40;99.90
2435;DHT22;1228;51.022;6.764;2022-08-30T05:41:37;17.40;99.90
2435;DHT22;1228;51.022;6.764;2022-08-30T05:44:05;17.40;99.90
2435;DHT22;1228;51.022;6.764;2022-08-30T05:46:31;17.40;99.90
2435;DHT22;1228;51.022;6.764;2022-08-30T05:48:59;17.50;99.90
2435;DHT22;1228;51.022;6.764;2022-08-30T05:51:27;17.50;99.90
2435;DHT22;1228;51.022;6.764;2022-08-30T05:53:55;17.60;99.90
2435;DHT22;1228;51.022;6.764;2022-08-30T05:56:23;17.80;99.90
2435;DHT22;1228;51.022;6.764;2022-08-30T05:58:49;18.10;99.90
2435;DHT22;1228;51.022;6.764;2022-08-30T06:01:36;18.30;99.90
2435;DHT22;1228;51.022;6.764;2022-08-30T06:04:03;18.60;99.90
2435;DHT22;1228;51.022;6.764;2022-08-30T06:06:31;18.80;99.90
2435;DHT22;1228;51.022;6.764;2022-08-30T06:08:57;19.00;99.90
2435;DHT22;1228;51.022;6.764;2022-08-30T06:11:24;19.20;99.90
2435;DHT22;1228;51.022;6.764;2022-08-30T06:13:51;19.40;99.90
2435;DHT22;1228;51.022;6.764;2022-08-30T06:16:19;19.50;99.90
2435;DHT22;1228;51.022;6.764;2022-08-30T06:18:46;19.70;99.90
2435;DHT22;1228;51.022;6.764;2022-08-30T06:21:18;20.00;99.90
2435;DHT22;1228;51.022;6.764;2022-08-30T06:23:44;20.30;99.90
2435;DHT22;1228;51.022;6.764;2022-08-30T06:26:10;20.70;99.90
2435;DHT22;1228;51.022;6.764;2022-08-30T06:28:36;20.90;99.90
2435;DHT22;1228;51.022;6.764;2022-08-30T06:31:05;21.10;99.90
2435;DHT22;1228;51.022;6.764;2022-08-30T06:33:32;21.40;99.90
2435;DHT22;1228;51.022;6.764;2022-08-30T06:36:09;21.70;99.90
2435;DHT22;1228;51.022;6.764;2022-08-30T06:38:35;22.00;99.90
2435;DHT22;1228;51.022;6.764;2022-08-30T06:41:06;22.10;99.90
2435;DHT22;1228;51.022;6.764;2022-08-30T06:43:32;22.30;99.90
2435;DHT22;1228;51.022;6.764;2022-08-30T06:46:03;22.40;99.90
2435;DHT22;1228;51.022;6.764;2022-08-30T06:48:29;22.50;99.90
2435;DHT22;1228;51.022;6.764;2022-08-30T06:50:55;22.40;99.90
2435;DHT22;1228;51.022;6.764;2022-08-30T06:53:21;22.40;99.90
2435;DHT22;1228;51.022;6.764;2022-08-30T06:55:58;22.40;99.90
2435;DHT22;1228;51.022;6.764;2022-08-30T06:58:25;22.60;99.90
2435;DHT22;1228;51.022;6.764;2022-08-30T07:00:51;23.10;99.90
2435;DHT22;1228;51.022;6.764;2022-08-30T07:03:17;23.50;99.90
2435;DHT22;1228;51.022;6.764;2022-08-30T07:05:42;24.10;99.90
2435;DHT22;1228;51.022;6.764;2022-08-30T07:08:08;24.40;99.90
2435;DHT22;1228;51.022;6.764;2022-08-30T07:10:37;24.50;99.90
2435;DHT22;1228;51.022;6.764;2022-08-30T07:13:03;24.40;99.90
2435;DHT22;1228;51.022;6.764;2022-08-30T07:15:28;24.30;99.90
2435;DHT22;1228;51.022;6.764;2022-08-30T07:17:54;24.20;99.90
2435;DHT22;1228;51.022;6.764;2022-08-30T07:20:38;24.00;99.90
2435;DHT22;1228;51.022;6.764;2022-08-30T07:23:03;23.90;99.90
2435;DHT22;1228;51.022;6.764;2022-08-30T07:25:29;24.00;99.90
2435;DHT22;1228;51.022;6.764;2022-08-30T07:27:55;24.10;99.90
2435;DHT22;1228;51.022;6.764;2022-08-30T07:30:21;24.40;99.90
2435;DHT22;1228;51.022;6.764;2022-08-30T07:32:47;24.70;99.90
2435;DHT22;1228;51.022;6.764;2022-08-30T07:35:13;24.80;99.90
2435;DHT22;1228;51.022;6.764;2022-08-30T07:37:39;24.70;99.90
2435;DHT22;1228;51.022;6.764;2022-08-30T07:40:06;24.80;99.90
2435;DHT22;1228;51.022;6.764;2022-08-30T07:42:32;24.90;99.90
2435;DHT22;1228;51.022;6.764;2022-08-30T07:44:57;25.30;99.90
2435;DHT22;1228;51.022;6.764;2022-08-30T07:47:23;25.70;99.90
2435;DHT22;1228;51.022;6.764;2022-08-30T07:49:49;26.10;99.90
2435;DHT22;1228;51.022;6.764;2022-08-30T07:52:14;26.30;99.90
2435;DHT22;1228;51.022;6.764;2022-08-30T07:54:40;26.50;99.90
2435;DHT22;1228;51.022;6.764;2022-08-30T07:57:07;26.50;99.90
2435;DHT22;1228;51.022;6.764;2022-08-30T07:59:32;26.70;99.90
2435;DHT22;1228;51.022;6.764;2022-08-30T08:01:58;26.60;99.90
2435;DHT22;1228;51.022;6.764;2022-08-30T08:04:24;26.90;99.90
2435;DHT22;1228;51.022;6.764;2022-08-30T08:06:49;26.90;99.90
2435;DHT22;1228;51.022;6.764;2022-08-30T08:09:15;27.00;99.90
2435;DHT22;1228;51.022;6.764;2022-08-30T08:11:41;27.10;99.90
2435;DHT22;1228;51.022;6.764;2022-08-30T08:14:07;27.40;99.90
2435;DHT22;1228;51.022;6.764;2022-08-30T08:16:34;27.90;99.90
2435;DHT22;1228;51.022;6.764;2022-08-30T08:19:00;28.30;99.90
2435;DHT22;1228;51.022;6.764;2022-08-30T08:21:26;28.60;99.90
2435;DHT22;1228;51.022;6.764;2022-08-30T08:23:53;28.90;99.90
2435;DHT22;1228;51.022;6.764;2022-08-30T08:26:19;29.20;99.90
2435;DHT22;1228;51.022;6.764;2022-08-30T08:28:45;29.20;99.90
2435;DHT22;1228;51.022;6.764;2022-08-30T08:31:22;29.30;99.90
2435;DHT22;1228;51.022;6.764;2022-08-30T08:33:48;29.40;99.90
2435;DHT22;1228;51.022;6.764;2022-08-30T08:36:14;29.10;99.90
2435;DHT22;1228;51.022;6.764;2022-08-30T08:38:39;29.00;99.90
2435;DHT22;1228;51.022;6.764;2022-08-30T08:43:38;28.50;99.90
2435;DHT22;1228;51.022;6.764;2022-08-30T08:48:50;29.20;99.90
2435;DHT22;1228;51.022;6.764;2022-08-30T08:51:19;29.70;99.90
2435;DHT22;1228;51.022;6.764;2022-08-30T08:54:12;30.00;99.90
2435;DHT22;1228;51.022;6.764;2022-08-30T08:56:39;30.30;99.90
2435;DHT22;1228;51.022;6.764;2022-08-30T08:59:07;30.70;99.90
2435;DHT22;1228;51.022;6.764;2022-08-30T09:01:34;31.10;99.90
2435;DHT22;1228;51.022;6.764;2022-08-30T09:04:07;31.00;99.90
2435;DHT22;1228;51.022;6.764;2022-08-30T09:06:56;30.80;99.90
2435;DHT22;1228;51.022;6.764;2022-08-30T09:09:28;30.60;99.90
2435;DHT22;1228;51.022;6.764;2022-08-30T09:11:54;31.00;99.90
2435;DHT22;1228;51.022;6.764;2022-08-30T09:14:27;31.20;98.70
2435;DHT22;1228;51.022;6.764;2022-08-30T09:17:05;31.20;99.90
2435;DHT22;1228;51.022;6.764;2022-08-30T09:22:35;31.60;99.90
2435;DHT22;1228;51.022;6.764;2022-08-30T09:27:36;31.70;98.50
2435;DHT22;1228;51.022;6.764;2022-08-30T09:32:59;32.70;96.50
2435;DHT22;1228;51.022;6.764;2022-08-30T09:35:36;33.00;94.90
2435;DHT22;1228;51.022;6.764;2022-08-30T09:38:11;33.40;93.70
2435;DHT22;1228;51.022;6.764;2022-08-30T09:40:43;33.60;90.90
2435;DHT22;1228;51.022;6.764;2022-08-30T09:43:21;33.90;91.20
2435;DHT22;1228;51.022;6.764;2022-08-30T09:56:42;34.60;78.10
2435;DHT22;1228;51.022;6.764;2022-08-30T09:59:29;34.20;76.30
2435;DHT22;1228;51.022;6.764;2022-08-30T10:02:05;33.50;77.90
2435;DHT22;1228;51.022;6.764;2022-08-30T10:15:47;33.40;75.90
2435;DHT22;1228;51.022;6.764;2022-08-30T10:18:16;33.50;76.50
2435;DHT22;1228;51.022;6.764;2022-08-30T10:21:18;34.00;75.20
2435;DHT22;1228;51.022;6.764;2022-08-30T10:24:09;34.30;74.70
2435;DHT22;1228;51.022;6.764;2022-08-30T10:26:39;34.70;74.90
2435;DHT22;1228;51.022;6.764;2022-08-30T10:29:15;35.10;73.40
2435;DHT22;1228;51.022;6.764;2022-08-30T10:31:45;35.10;72.90
2435;DHT22;1228;51.022;6.764;2022-08-30T10:37:00;34.40;71.80
2435;DHT22;1228;51.022;6.764;2022-08-30T10:39:31;34.40;74.60
2435;DHT22;1228;51.022;6.764;2022-08-30T10:44:52;34.00;69.90
2435;DHT22;1228;51.022;6.764;2022-08-30T10:49:56;32.70;69.50
2435;DHT22;1228;51.022;6.764;2022-08-30T10:55:20;31.80;73.40
2435;DHT22;1228;51.022;6.764;2022-08-30T10:57:47;31.80;74.30
2435;DHT22;1228;51.022;6.764;2022-08-30T11:00:22;31.80;76.20
2435;DHT22;1228;51.022;6.764;2022-08-30T11:13:24;33.80;69.40
2435;DHT22;1228;51.022;6.764;2022-08-30T11:18:29;33.30;76.30
2435;DHT22;1228;51.022;6.764;2022-08-30T11:24:03;33.50;77.70
2435;DHT22;1228;51.022;6.764;2022-08-30T11:37:10;34.00;73.10
2435;DHT22;1228;51.022;6.764;2022-08-30T11:39:56;33.70;71.50
2435;DHT22;1228;51.022;6.764;2022-08-30T11:42:38;33.20;75.30
2435;DHT22;1228;51.022;6.764;2022-08-30T11:47:59;33.20;74.10
2435;DHT22;1228;51.022;6.764;2022-08-30T11:50:45;33.80;77.50
2435;DHT22;1228;51.022;6.764;2022-08-30T11:53:37;34.00;73.80
2435;DHT22;1228;51.022;6.764;2022-08-30T11:56:18;34.30;75.00
2435;DHT22;1228;51.022;6.764;2022-08-30T11:58:57;34.10;74.40
2435;DHT22;1228;51.022;6.764;2022-08-30T12:06:57;34.10;75.90
2435;DHT22;1228;51.022;6.764;2022-08-30T12:14:42;33.80;73.20
2435;DHT22;1228;51.022;6.764;2022-08-30T12:20:44;33.50;77.70
2435;DHT22;1228;51.022;6.764;2022-08-30T12:23:40;33.90;74.80
2435;DHT22;1228;51.022;6.764;2022-08-30T12:26:29;33.50;73.30
2435;DHT22;1228;51.022;6.764;2022-08-30T12:32:14;33.50;76.10
2435;DHT22;1228;51.022;6.764;2022-08-30T12:37:08;33.50;77.30
2435;DHT22;1228;51.022;6.764;2022-08-30T12:39:36;33.70;74.80
2435;DHT22;1228;51.022;6.764;2022-08-30T12:42:15;33.70;74.40
2435;DHT22;1228;51.022;6.764;2022-08-30T12:44:42;33.40;76.70
2435;DHT22;1228;51.022;6.764;2022-08-30T12:47:08;33.30;75.40
2435;DHT22;1228;51.022;6.764;2022-08-30T12:49:37;33.00;74.30
2435;DHT22;1228;51.022;6.764;2022-08-30T12:54:55;32.90;76.90
2435;DHT22;1228;51.022;6.764;2022-08-30T13:00:35;33.40;75.80
2435;DHT22;1228;51.022;6.764;2022-08-30T13:03:34;33.50;75.20
2435;DHT22;1228;51.022;6.764;2022-08-30T13:06:02;33.30;74.30
2435;DHT22;1228;51.022;6.764;2022-08-30T13:11:05;33.30;74.50
2435;DHT22;1228;51.022;6.764;2022-08-30T13:13:34;33.10;73.90
2435;DHT22;1228;51.022;6.764;2022-08-30T13:18:33;33.20;74.00
2435;DHT22;1228;51.022;6.764;2022-08-30T13:21:10;33.30;74.50
2435;DHT22;1228;51.022;6.764;2022-08-30T13:23:36;33.30;72.90
2435;DHT22;1228;51.022;6.764;2022-08-30T13:26:05;33.20;76.70
2435;DHT22;1228;51.022;6.764;2022-08-30T13:28:41;32.90;74.30
2435;DHT22;1228;51.022;6.764;2022-08-30T13:31:07;33.00;74.50
2435;DHT22;1228;51.022;6.764;2022-08-30T13:33:33;33.10;73.00
2435;DHT22;1228;51.022;6.764;2022-08-30T13:35:59;33.20;75.90
2435;DHT22;1228;51.022;6.764;2022-08-30T13:38:25;33.40;74.70
2435;DHT22;1228;51.022;6.764;2022-08-30T13:40:50;33.60;73.70
2435;DHT22;1228;51.022;6.764;2022-08-30T13:43:16;33.90;72.50
2435;DHT22;1228;51.022;6.764;2022-08-30T13:45:41;34.20;74.90
2435;DHT22;1228;51.022;6.764;2022-08-30T13:48:07;34.30;73.00
2435;DHT22;1228;51.022;6.764;2022-08-30T13:50:35;34.40;73.80
2435;DHT22;1228;51.022;6.764;2022-08-30T13:53:00;34.30;72.70
2435;DHT22;1228;51.022;6.764;2022-08-30T13:55:26;34.40;71.70
2435;DHT22;1228;51.022;6.764;2022-08-30T13:57:52;34.40;72.60
2435;DHT22;1228;51.022;6.764;2022-08-30T14:00:18;34.80;72.00
2435;DHT22;1228;51.022;6.764;2022-08-30T14:02:46;34.50;68.80
2435;DHT22;1228;51.022;6.764;2022-08-30T14:05:12;34.10;69.50
2435;DHT22;1228;51.022;6.764;2022-08-30T14:07:38;33.80;71.20
2435;DHT22;1228;51.022;6.764;2022-08-30T14:10:04;33.80;69.90
2435;DHT22;1228;51.022;6.764;2022-08-30T14:12:30;33.60;71.60
2435;DHT22;1228;51.022;6.764;2022-08-30T14:14:56;33.40;69.10
2435;DHT22;1228;51.022;6.764;2022-08-30T14:17:22;33.00;71.80
2435;DHT22;1228;51.022;6.764;2022-08-30T14:19:53;32.70;71.30
2435;DHT22;1228;51.022;6.764;2022-08-30T14:22:19;32.40;73.10
2435;DHT22;1228;51.022;6.764;2022-08-30T14:24:45;32.30;74.80
2435;DHT22;1228;51.022;6.764;2022-08-30T14:27:10;32.30;71.70
2435;DHT22;1228;51.022;6.764;2022-08-30T14:29:36;32.40;72.80
2435;DHT22;1228;51.022;6.764;2022-08-30T14:32:02;32.50;73.30
2435;DHT22;1228;51.022;6.764;2022-08-30T14:34:28;32.70;73.20
2435;DHT22;1228;51.022;6.764;2022-08-30T14:36:53;32.80;73.90
2435;DHT22;1228;51.022;6.764;2022-08-30T14:39:21;32.90;75.10
2435;DHT22;1228;51.022;6.764;2022-08-30T14:41:50;32.80;71.80
2435;DHT22;1228;51.022;6.764;2022-08-30T14:44:17;32.80;72.10
2435;DHT22;1228;51.022;6.764;2022-08-30T14:46:44;32.70;71.90
2435;DHT22;1228;51.022;6.764;2022-08-30T14:49:10;32.40;73.40
2435;DHT22;1228;51.022;6.764;2022-08-30T14:51:37;32.50;76.20
2435;DHT22;1228;51.022;6.764;2022-08-30T14:54:03;32.80;75.50
2435;DHT22;1228;51.022;6.764;2022-08-30T14:56:28;33.00;72.90
2435;DHT22;1228;51.022;6.764;2022-08-30T14:58:54;33.00;72.30
2435;DHT22;1228;51.022;6.764;2022-08-30T15:01:25;33.00;71.40
2435;DHT22;1228;51.022;6.764;2022-08-30T15:03:51;33.00;73.30
2435;DHT22;1228;51.022;6.764;2022-08-30T15:06:17;33.00;73.90
2435;DHT22;1228;51.022;6.764;2022-08-30T15:08:42;33.10;72.40
2435;DHT22;1228;51.022;6.764;2022-08-30T15:11:10;32.80;71.70
2435;DHT22;1228;51.022;6.764;2022-08-30T15:13:36;32.70;73.20
2435;DHT22;1228;51.022;6.764;2022-08-30T15:16:07;32.40;72.80
2435;DHT22;1228;51.022;6.764;2022-08-30T15:18:33;32.50;73.60
2435;DHT22;1228;51.022;6.764;2022-08-30T15:20:59;32.80;73.10
2435;DHT22;1228;51.022;6.764;2022-08-30T15:23:24;32.90;73.10
2435;DHT22;1228;51.022;6.764;2022-08-30T15:25:50;33.10;72.00
2435;DHT22;1228;51.022;6.764;2022-08-30T15:28:15;33.00;71.80
2435;DHT22;1228;51.022;6.764;2022-08-30T15:30:41;32.90;70.20
2435;DHT22;1228;51.022;6.764;2022-08-30T15:33:08;32.60;71.10
2435;DHT22;1228;51.022;6.764;2022-08-30T15:35:33;32.20;72.30
2435;DHT22;1228;51.022;6.764;2022-08-30T15:37:59;32.00;72.60
2435;DHT22;1228;51.022;6.764;2022-08-30T15:40:25;31.90;72.10
2435;DHT22;1228;51.022;6.764;2022-08-30T15:42:52;31.70;72.80
2435;DHT22;1228;51.022;6.764;2022-08-30T15:45:18;31.70;73.00
2435;DHT22;1228;51.022;6.764;2022-08-30T15:47:43;31.50;73.70
2435;DHT22;1228;51.022;6.764;2022-08-30T15:50:09;31.30;74.50
2435;DHT22;1228;51.022;6.764;2022-08-30T15:52:35;31.10;72.80
2435;DHT22;1228;51.022;6.764;2022-08-30T15:55:00;30.60;73.20
2435;DHT22;1228;51.022;6.764;2022-08-30T15:57:26;30.20;74.80
2435;DHT22;1228;51.022;6.764;2022-08-30T15:59:51;29.90;75.50
2435;DHT22;1228;51.022;6.764;2022-08-30T16:02:19;29.90;77.30
2435;DHT22;1228;51.022;6.764;2022-08-30T16:04:45;29.80;76.00
2435;DHT22;1228;51.022;6.764;2022-08-30T16:07:10;29.70;76.20
2435;DHT22;1228;51.022;6.764;2022-08-30T16:09:37;29.50;77.50
2435;DHT22;1228;51.022;6.764;2022-08-30T16:12:04;29.30;78.40
2435;DHT22;1228;51.022;6.764;2022-08-30T16:14:29;29.30;78.00
2435;DHT22;1228;51.022;6.764;2022-08-30T16:16:56;29.30;76.80
2435;DHT22;1228;51.022;6.764;2022-08-30T16:19:21;29.00;77.50
2435;DHT22;1228;51.022;6.764;2022-08-30T16:21:53;28.70;78.40
2435;DHT22;1228;51.022;6.764;2022-08-30T16:24:19;28.90;78.40
2435;DHT22;1228;51.022;6.764;2022-08-30T16:26:45;29.40;79.00
2435;DHT22;1228;51.022;6.764;2022-08-30T16:29:12;29.30;78.90
2435;DHT22;1228;51.022;6.764;2022-08-30T16:31:38;29.20;78.40
2435;DHT22;1228;51.022;6.764;2022-08-30T16:34:04;28.90;78.70
2435;DHT22;1228;51.022;6.764;2022-08-30T16:36:31;29.10;77.70
2435;DHT22;1228;51.022;6.764;2022-08-30T16:38:57;29.40;78.70
2435;DHT22;1228;51.022;6.764;2022-08-30T16:41:23;29.30;77.50
2435;DHT22;1228;51.022;6.764;2022-08-30T16:43:49;29.10;77.20
2435;DHT22;1228;51.022;6.764;2022-08-30T16:46:17;29.20;77.60
2435;DHT22;1228;51.022;6.764;2022-08-30T16:48:44;29.20;77.80
2435;DHT22;1228;51.022;6.764;2022-08-30T16:51:16;29.20;78.20
2435;DHT22;1228;51.022;6.764;2022-08-30T16:53:42;28.90;76.90
2435;DHT22;1228;51.022;6.764;2022-08-30T16:56:10;28.80;78.70
2435;DHT22;1228;51.022;6.764;2022-08-30T16:58:37;28.80;78.40
2435;DHT22;1228;51.022;6.764;2022-08-30T17:01:03;28.40;80.40
2435;DHT22;1228;51.022;6.764;2022-08-30T17:03:29;28.10;80.60
2435;DHT22;1228;51.022;6.764;2022-08-30T17:05:55;27.70;81.70
2435;DHT22;1228;51.022;6.764;2022-08-30T17:08:21;27.30;82.90
2435;DHT22;1228;51.022;6.764;2022-08-30T17:10:46;27.00;83.40
2435;DHT22;1228;51.022;6.764;2022-08-30T17:13:12;26.80;85.10
2435;DHT22;1228;51.022;6.764;2022-08-30T17:15:38;26.60;86.20
2435;DHT22;1228;51.022;6.764;2022-08-30T17:18:04;26.40;86.20
2435;DHT22;1228;51.022;6.764;2022-08-30T17:20:30;26.40;87.00
2435;DHT22;1228;51.022;6.764;2022-08-30T17:22:57;26.30;87.90
2435;DHT22;1228;51.022;6.764;2022-08-30T17:25:23;26.30;89.40
2435;DHT22;1228;51.022;6.764;2022-08-30T17:27:49;26.10;89.00
2435;DHT22;1228;51.022;6.764;2022-08-30T17:30:15;26.10;89.70
2435;DHT22;1228;51.022;6.764;2022-08-30T17:32:40;26.00;89.70
2435;DHT22;1228;51.022;6.764;2022-08-30T17:35:06;26.00;90.40
2435;DHT22;1228;51.022;6.764;2022-08-30T17:37:32;25.80;90.50
2435;DHT22;1228;51.022;6.764;2022-08-30T17:39:58;25.80;90.90
2435;DHT22;1228;51.022;6.764;2022-08-30T17:42:25;25.70;91.10
2435;DHT22;1228;51.022;6.764;2022-08-30T17:44:51;25.60;90.70
2435;DHT22;1228;51.022;6.764;2022-08-30T17:47:17;25.50;91.30
2435;DHT22;1228;51.022;6.764;2022-08-30T17:49:43;25.40;91.00
2435;DHT22;1228;51.022;6.764;2022-08-30T17:52:08;25.20;91.10
2435;DHT22;1228;51.022;6.764;2022-08-30T17:54:34;25.10;91.40
2435;DHT22;1228;51.022;6.764;2022-08-30T17:57:00;24.90;92.30